Lincoln, NE (68526)

3:50 AM CDT on August 28, 2015 (GMT -0500)
Vintage Heights | | Change Station
CLOSE
Current Station
Personal Weather Station
Location: Lincoln, NE
Elevation: 1385 ft
Nearby Weather Stations

Elev 1385 ft 40.74 °N, 96.60 °W | Updated 5 minutes ago

Overcast
Overcast
68.9 °F
Feels Like 68.9 °F
N
8.3
Wind Variable Wind from South

Today
High -- | Low -- °F
--% Chance of Precip.
Yesterday
High -- | Low -- °F
Precip. -- in
6:49 AM 8:05 PM
Waxing Gibbous, 97% visible
Pressure 29.81 in
Visibility 9.0 miles
Clouds Few 3100 ft
Mostly Cloudy 8000 ft
Overcast 9000 ft
Dew Point 67 °F
Humidity 94%
Rainfall 1.10 in
Snow Depth Not available.
UV 0 out of 12
Pollen 8.70 out of 12
Air Quality Not available.
Flu Activity Not available.
METAR KLNK 280754Z AUTO 13013KT 9SM FEW031 BKN080 OVC090 21/20 A2985 RMK AO2 LTG DSNT E AND SE RAE15 TSE07 PRESFR SLP095 P0009 T02110200
Pressure 29.81 in
Visibility 9.0 miles
Clouds Few 3100 ft
Mostly Cloudy 8000 ft
Overcast 9000 ft
Dew Point 67 °F
Humidity 94%
Rainfall 1.10 in
Snow Depth Not available.
UV 0 out of 12
Pollen 8.70 out of 12
Air Quality Not available.
Flu Activity Not available.
METAR KLNK 280754Z AUTO 13013KT 9SM FEW031 BKN080 OVC090 21/20 A2985 RMK AO2 LTG DSNT E AND SE RAE15 TSE07 PRESFR SLP095 P0009 T02110200

10-Day Weather Forecast

×

Almanac

Astronomy

Aug. 28, 2015 Rise Set
Actual Time
Civil Twilight
Nautical Twilight
Astronomical Twilight
Moon
Length of Visible Light
Length of Day
Tomorrow will be .
, % of the Moon is Illuminated

Today's Extremes

State Highs State Lows

Community

WunderPhotos

Upload Photos

1,850,348 photos uploaded!

WunderBlogs® & News

Nearby

Air Quality

  Air Quality AQ Index Pollutant
Not available.

Snow Depth

Station Depth Elevation

Earthquake Activity

City Distance Mag. Time & Date
Minimum magnitude displayed is 2.5.

Coastal Water Temperatures

Place Temperature

Stations

Nearby Weather Stations

Station Location Temp. Windchill Dew Point Humidity Wind Precip. Elev Updated Type